sensor_id;sensor_type;location;lat;lon;timestamp;pressure;altitude;pressure_sealevel;temperature;humidity
43119;BME280;28729;49.838;8.650;2023-04-02T00:09:24;98924.31;;;9.02;100.00
43119;BME280;28729;49.838;8.650;2023-04-02T00:13:29;98931.19;;;9.05;100.00
43119;BME280;28729;49.838;8.650;2023-04-02T00:17:32;98932.03;;;9.05;100.00
43119;BME280;28729;49.838;8.650;2023-04-02T00:21:35;98933.66;;;9.06;100.00
43119;BME280;28729;49.838;8.650;2023-04-02T00:25:43;98937.75;;;9.04;100.00
43119;BME280;28729;49.838;8.650;2023-04-02T00:29:51;98941.88;;;9.01;100.00
43119;BME280;28729;49.838;8.650;2023-04-02T00:33:53;98948.72;;;8.99;100.00
43119;BME280;28729;49.838;8.650;2023-04-02T00:37:56;98948.41;;;8.95;100.00
43119;BME280;28729;49.838;8.650;2023-04-02T00:41:58;98951.41;;;8.94;100.00
43119;BME280;28729;49.838;8.650;2023-04-02T00:46:16;98950.59;;;8.93;100.00
43119;BME280;28729;49.838;8.650;2023-04-02T00:50:27;98945.09;;;8.93;100.00
43119;BME280;28729;49.838;8.650;2023-04-02T00:54:35;98952.75;;;8.91;100.00
43119;BME280;28729;49.838;8.650;2023-04-02T00:58:39;98951.94;;;8.90;100.00
43119;BME280;28729;49.838;8.650;2023-04-02T01:02:41;98953.88;;;8.90;100.00
43119;BME280;28729;49.838;8.650;2023-04-02T01:06:44;98956.84;;;8.88;100.00
43119;BME280;28729;49.838;8.650;2023-04-02T01:11:01;98958.25;;;8.91;100.00
43119;BME280;28729;49.838;8.650;2023-04-02T01:15:18;98961.59;;;8.93;100.00
43119;BME280;28729;49.838;8.650;2023-04-02T01:24:12;98964.34;;;8.93;100.00
43119;BME280;28729;49.838;8.650;2023-04-02T01:28:15;98973.97;;;8.96;100.00
43119;BME280;28729;49.838;8.650;2023-04-02T01:32:21;98975.34;;;8.98;100.00
43119;BME280;28729;49.838;8.650;2023-04-02T01:36:38;98978.97;;;8.99;100.00
43119;BME280;28729;49.838;8.650;2023-04-02T01:40:48;98985.84;;;9.01;100.00
43119;BME280;28729;49.838;8.650;2023-04-02T01:45:02;98992.19;;;9.02;100.00
43119;BME280;28729;49.838;8.650;2023-04-02T01:49:17;99003.41;;;9.00;100.00
43119;BME280;28729;49.838;8.650;2023-04-02T01:53:21;99006.75;;;9.02;100.00
43119;BME280;28729;49.838;8.650;2023-04-02T01:57:26;99009.22;;;9.04;100.00
43119;BME280;28729;49.838;8.650;2023-04-02T02:01:48;99014.97;;;9.02;100.00
43119;BME280;28729;49.838;8.650;2023-04-02T02:05:53;99021.00;;;8.99;100.00
43119;BME280;28729;49.838;8.650;2023-04-02T02:09:56;99015.75;;;8.98;100.00
43119;BME280;28729;49.838;8.650;2023-04-02T02:14:03;99012.75;;;8.99;100.00
43119;BME280;28729;49.838;8.650;2023-04-02T02:18:06;99027.06;;;9.01;100.00
43119;BME280;28729;49.838;8.650;2023-04-02T02:22:24;99033.13;;;9.03;100.00
43119;BME280;28729;49.838;8.650;2023-04-02T02:26:28;99030.88;;;9.00;100.00
43119;BME280;28729;49.838;8.650;2023-04-02T02:30:36;99042.41;;;8.97;100.00
43119;BME280;28729;49.838;8.650;2023-04-02T02:34:46;99044.31;;;8.97;100.00
43119;BME280;28729;49.838;8.650;2023-04-02T02:43:02;99043.22;;;8.98;100.00
43119;BME280;28729;49.838;8.650;2023-04-02T02:47:17;99051.47;;;8.98;100.00
43119;BME280;28729;49.838;8.650;2023-04-02T02:51:22;99053.31;;;8.92;100.00
43119;BME280;28729;49.838;8.650;2023-04-02T02:55:33;99056.66;;;8.94;100.00
43119;BME280;28729;49.838;8.650;2023-04-02T02:59:44;99062.41;;;8.93;100.00
43119;BME280;28729;49.838;8.650;2023-04-02T03:03:47;99070.09;;;8.90;100.00
43119;BME280;28729;49.838;8.650;2023-04-02T03:07:51;99067.34;;;8.90;100.00
43119;BME280;28729;49.838;8.650;2023-04-02T03:12:05;99084.91;;;8.89;100.00
43119;BME280;28729;49.838;8.650;2023-04-02T03:16:19;99084.34;;;8.87;100.00
43119;BME280;28729;49.838;8.650;2023-04-02T03:37:43;99106.63;;;8.91;100.00
43119;BME280;28729;49.838;8.650;2023-04-02T03:42:01;99113.53;;;8.94;100.00
43119;BME280;28729;49.838;8.650;2023-04-02T03:46:21;99125.09;;;8.96;100.00
43119;BME280;28729;49.838;8.650;2023-04-02T03:50:37;99126.44;;;8.93;100.00
43119;BME280;28729;49.838;8.650;2023-04-02T03:54:42;99136.84;;;8.91;100.00
43119;BME280;28729;49.838;8.650;2023-04-02T03:59:05;99142.09;;;8.93;100.00
43119;BME280;28729;49.838;8.650;2023-04-02T04:03:15;99154.44;;;8.90;100.00
43119;BME280;28729;49.838;8.650;2023-04-02T04:07:29;99159.84;;;8.85;100.00
43119;BME280;28729;49.838;8.650;2023-04-02T04:11:35;99164.19;;;8.81;100.00
43119;BME280;28729;49.838;8.650;2023-04-02T04:19:53;99163.34;;;8.80;100.00
43119;BME280;28729;49.838;8.650;2023-04-02T04:24:06;99169.69;;;8.81;100.00
43119;BME280;28729;49.838;8.650;2023-04-02T04:28:18;99174.91;;;8.82;100.00
43119;BME280;28729;49.838;8.650;2023-04-02T04:32:32;99189.16;;;8.79;100.00
43119;BME280;28729;49.838;8.650;2023-04-02T04:36:47;99185.59;;;8.79;100.00
43119;BME280;28729;49.838;8.650;2023-04-02T04:41:10;99196.25;;;8.75;100.00
43119;BME280;28729;49.838;8.650;2023-04-02T04:45:34;99203.91;;;8.73;100.00
43119;BME280;28729;49.838;8.650;2023-04-02T04:49:46;99212.75;;;8.75;100.00
43119;BME280;28729;49.838;8.650;2023-04-02T04:53:52;99215.22;;;8.77;100.00
43119;BME280;28729;49.838;8.650;2023-04-02T04:58:21;99223.22;;;8.78;100.00
43119;BME280;28729;49.838;8.650;2023-04-02T05:02:34;99224.66;;;8.81;100.00
43119;BME280;28729;49.838;8.650;2023-04-02T05:06:42;99237.28;;;8.82;100.00
43119;BME280;28729;49.838;8.650;2023-04-02T05:11:09;99238.44;;;8.86;100.00
43119;BME280;28729;49.838;8.650;2023-04-02T05:15:31;99241.53;;;8.89;100.00
43119;BME280;28729;49.838;8.650;2023-04-02T05:19:55;99254.75;;;8.93;100.00
43119;BME280;28729;49.838;8.650;2023-04-02T05:24:26;99257.00;;;8.96;100.00
43119;BME280;28729;49.838;8.650;2023-04-02T05:28:53;99252.88;;;8.98;100.00
43119;BME280;28729;49.838;8.650;2023-04-02T05:33:19;99263.97;;;9.03;100.00
43119;BME280;28729;49.838;8.650;2023-04-02T05:37:25;99267.88;;;9.07;100.00
43119;BME280;28729;49.838;8.650;2023-04-02T05:41:39;99272.94;;;9.16;100.00
43119;BME280;28729;49.838;8.650;2023-04-02T05:45:45;99278.25;;;9.22;100.00
43119;BME280;28729;49.838;8.650;2023-04-02T05:54:20;99296.41;;;9.45;100.00
43119;BME280;28729;49.838;8.650;2023-04-02T05:58:41;99301.25;;;9.55;100.00
43119;BME280;28729;49.838;8.650;2023-04-02T06:03:00;99306.63;;;9.67;100.00
43119;BME280;28729;49.838;8.650;2023-04-02T06:07:10;99310.59;;;9.76;100.00
43119;BME280;28729;49.838;8.650;2023-04-02T06:11:31;99324.44;;;9.86;100.00
43119;BME280;28729;49.838;8.650;2023-04-02T06:15:47;99324.31;;;9.98;100.00
43119;BME280;28729;49.838;8.650;2023-04-02T06:20:01;99334.09;;;10.11;100.00
43119;BME280;28729;49.838;8.650;2023-04-02T06:24:08;99340.22;;;10.18;100.00
43119;BME280;28729;49.838;8.650;2023-04-02T06:28:16;99356.06;;;10.27;100.00
43119;BME280;28729;49.838;8.650;2023-04-02T06:32:25;99354.78;;;10.35;100.00
43119;BME280;28729;49.838;8.650;2023-04-02T06:36:28;99359.78;;;10.43;100.00
43119;BME280;28729;49.838;8.650;2023-04-02T06:40:40;99370.63;;;10.50;100.00
43119;BME280;28729;49.838;8.650;2023-04-02T06:44:54;99376.44;;;10.54;100.00
43119;BME280;28729;49.838;8.650;2023-04-02T06:49:37;99387.75;;;10.57;100.00
43119;BME280;28729;49.838;8.650;2023-04-02T06:53:45;99395.56;;;10.65;100.00
43119;BME280;28729;49.838;8.650;2023-04-02T06:57:49;99403.34;;;10.73;100.00
43119;BME280;28729;49.838;8.650;2023-04-02T07:01:56;99406.09;;;10.73;100.00
43119;BME280;28729;49.838;8.650;2023-04-02T07:06:01;99416.03;;;10.75;100.00
43119;BME280;28729;49.838;8.650;2023-04-02T07:10:05;99422.63;;;10.73;100.00
43119;BME280;28729;49.838;8.650;2023-04-02T07:14:11;99433.47;;;10.80;100.00
43119;BME280;28729;49.838;8.650;2023-04-02T07:18:30;99436.31;;;10.90;100.00
43119;BME280;28729;49.838;8.650;2023-04-02T07:22:35;99440.78;;;10.97;100.00
43119;BME280;28729;49.838;8.650;2023-04-02T07:26:37;99454.69;;;11.12;100.00
43119;BME280;28729;49.838;8.650;2023-04-02T07:30:39;99460.25;;;11.17;100.00
43119;BME280;28729;49.838;8.650;2023-04-02T07:34:41;99475.72;;;11.18;100.00
43119;BME280;28729;49.838;8.650;2023-04-02T07:38:43;99479.88;;;11.21;100.00
43119;BME280;28729;49.838;8.650;2023-04-02T07:42:45;99484.16;;;11.33;100.00
43119;BME280;28729;49.838;8.650;2023-04-02T07:46:47;99488.59;;;11.39;100.00
43119;BME280;28729;49.838;8.650;2023-04-02T07:50:49;99494.72;;;11.47;100.00
43119;BME280;28729;49.838;8.650;2023-04-02T07:54:51;99492.31;;;11.55;100.00
43119;BME280;28729;49.838;8.650;2023-04-02T07:58:53;99501.47;;;11.61;100.00
43119;BME280;28729;49.838;8.650;2023-04-02T08:02:55;99514.50;;;11.71;100.00
43119;BME280;28729;49.838;8.650;2023-04-02T08:06:57;99517.56;;;11.74;100.00
43119;BME280;28729;49.838;8.650;2023-04-02T08:10:59;99525.84;;;11.74;100.00
43119;BME280;28729;49.838;8.650;2023-04-02T08:15:02;99536.53;;;11.66;100.00
43119;BME280;28729;49.838;8.650;2023-04-02T08:19:07;99543.00;;;11.17;100.00
43119;BME280;28729;49.838;8.650;2023-04-02T08:27:29;99558.50;;;9.96;100.00
43119;BME280;28729;49.838;8.650;2023-04-02T08:31:33;99571.28;;;9.69;100.00
43119;BME280;28729;49.838;8.650;2023-04-02T08:35:37;99578.56;;;9.58;100.00
43119;BME280;28729;49.838;8.650;2023-04-02T08:39:40;99588.88;;;9.34;100.00
43119;BME280;28729;49.838;8.650;2023-04-02T08:44:08;99593.88;;;9.08;100.00
43119;BME280;28729;49.838;8.650;2023-04-02T08:48:14;99601.59;;;8.83;100.00
43119;BME280;28729;49.838;8.650;2023-04-02T08:52:31;99618.53;;;8.51;100.00
43119;BME280;28729;49.838;8.650;2023-04-02T08:56:39;99626.66;;;8.46;100.00
43119;BME280;28729;49.838;8.650;2023-04-02T09:00:44;99637.75;;;8.39;100.00
43119;BME280;28729;49.838;8.650;2023-04-02T09:04:47;99653.25;;;8.34;100.00
43119;BME280;28729;49.838;8.650;2023-04-02T09:08:52;99645.50;;;8.31;100.00
43119;BME280;28729;49.838;8.650;2023-04-02T09:12:54;99660.31;;;8.18;100.00
43119;BME280;28729;49.838;8.650;2023-04-02T09:17:01;99675.31;;;8.15;100.00
43119;BME280;28729;49.838;8.650;2023-04-02T09:21:21;99675.44;;;8.20;100.00
43119;BME280;28729;49.838;8.650;2023-04-02T09:25:30;99691.91;;;8.32;100.00
43119;BME280;28729;49.838;8.650;2023-04-02T09:29:42;99682.97;;;8.37;100.00
43119;BME280;28729;49.838;8.650;2023-04-02T09:33:47;99700.66;;;8.53;100.00
43119;BME280;28729;49.838;8.650;2023-04-02T09:42:37;99714.50;;;8.93;100.00
43119;BME280;28729;49.838;8.650;2023-04-02T09:46:57;99725.63;;;8.86;100.00
43119;BME280;28729;49.838;8.650;2023-04-02T09:51:16;99731.94;;;8.87;100.00
43119;BME280;28729;49.838;8.650;2023-04-02T09:55:26;99732.66;;;8.82;100.00
43119;BME280;28729;49.838;8.650;2023-04-02T09:59:29;99739.44;;;8.92;100.00
43119;BME280;28729;49.838;8.650;2023-04-02T10:03:32;99752.00;;;8.87;100.00
43119;BME280;28729;49.838;8.650;2023-04-02T10:07:43;99765.41;;;8.60;100.00
43119;BME280;28729;49.838;8.650;2023-04-02T10:11:47;99774.47;;;8.73;100.00
43119;BME280;28729;49.838;8.650;2023-04-02T10:20:21;99795.59;;;8.49;100.00
43119;BME280;28729;49.838;8.650;2023-04-02T10:24:27;99797.88;;;8.52;100.00
43119;BME280;28729;49.838;8.650;2023-04-02T10:32:54;99810.78;;;8.33;100.00
43119;BME280;28729;49.838;8.650;2023-04-02T10:37:04;99822.31;;;8.41;100.00
43119;BME280;28729;49.838;8.650;2023-04-02T10:54:22;99830.97;;;9.27;100.00
43119;BME280;28729;49.838;8.650;2023-04-02T10:58:30;99847.28;;;9.57;100.00
43119;BME280;28729;49.838;8.650;2023-04-02T11:07:03;99861.38;;;9.85;100.00
43119;BME280;28729;49.838;8.650;2023-04-02T11:11:22;99873.09;;;9.80;100.00
43119;BME280;28729;49.838;8.650;2023-04-02T11:15:28;99870.72;;;9.72;100.00
43119;BME280;28729;49.838;8.650;2023-04-02T11:19:32;99874.38;;;9.49;100.00
43119;BME280;28729;49.838;8.650;2023-04-02T11:23:55;99886.78;;;9.40;100.00
43119;BME280;28729;49.838;8.650;2023-04-02T11:28:33;99890.22;;;9.70;100.00
43119;BME280;28729;49.838;8.650;2023-04-02T11:32:38;99902.91;;;9.59;100.00
43119;BME280;28729;49.838;8.650;2023-04-02T11:49:35;99935.75;;;8.72;100.00
43119;BME280;28729;49.838;8.650;2023-04-02T11:53:41;99944.19;;;8.71;100.00
43119;BME280;28729;49.838;8.650;2023-04-02T12:02:32;99957.19;;;8.63;100.00
43119;BME280;28729;49.838;8.650;2023-04-02T12:11:07;99972.19;;;8.49;100.00
43119;BME280;28729;49.838;8.650;2023-04-02T12:15:42;99975.41;;;8.46;100.00
43119;BME280;28729;49.838;8.650;2023-04-02T12:19:47;99981.13;;;8.44;100.00
43119;BME280;28729;49.838;8.650;2023-04-02T12:23:52;99986.38;;;8.46;100.00
43119;BME280;28729;49.838;8.650;2023-04-02T12:28:16;100002.72;;;8.41;100.00
43119;BME280;28729;49.838;8.650;2023-04-02T12:32:26;99999.41;;;8.32;100.00
43119;BME280;28729;49.838;8.650;2023-04-02T12:36:30;100000.03;;;8.16;100.00
43119;BME280;28729;49.838;8.650;2023-04-02T12:40:33;100013.00;;;7.90;100.00
43119;BME280;28729;49.838;8.650;2023-04-02T12:44:35;100017.19;;;7.93;100.00
43119;BME280;28729;49.838;8.650;2023-04-02T12:48:37;100023.59;;;7.87;100.00
43119;BME280;28729;49.838;8.650;2023-04-02T12:52:44;100029.91;;;8.06;100.00
43119;BME280;28729;49.838;8.650;2023-04-02T12:56:48;100029.25;;;8.10;100.00
43119;BME280;28729;49.838;8.650;2023-04-02T13:01:17;100032.91;;;8.22;100.00
43119;BME280;28729;49.838;8.650;2023-04-02T13:05:38;100041.75;;;8.25;100.00
43119;BME280;28729;49.838;8.650;2023-04-02T13:09:53;100046.00;;;8.20;100.00
43119;BME280;28729;49.838;8.650;2023-04-02T13:14:00;100048.06;;;8.07;100.00
43119;BME280;28729;49.838;8.650;2023-04-02T13:22:29;100058.97;;;7.70;100.00
43119;BME280;28729;49.838;8.650;2023-04-02T13:26:32;100063.06;;;7.61;100.00
43119;BME280;28729;49.838;8.650;2023-04-02T13:30:34;100061.47;;;7.53;100.00
43119;BME280;28729;49.838;8.650;2023-04-02T13:34:36;100067.44;;;7.43;100.00
43119;BME280;28729;49.838;8.650;2023-04-02T13:38:39;100087.81;;;7.54;100.00
43119;BME280;28729;49.838;8.650;2023-04-02T13:42:42;100076.41;;;7.57;100.00
43119;BME280;28729;49.838;8.650;2023-04-02T13:46:45;100085.94;;;7.23;100.00
43119;BME280;28729;49.838;8.650;2023-04-02T13:50:47;100092.66;;;7.52;100.00
43119;BME280;28729;49.838;8.650;2023-04-02T13:54:55;100104.22;;;7.86;100.00
43119;BME280;28729;49.838;8.650;2023-04-02T13:59:00;100103.91;;;7.94;100.00
43119;BME280;28729;49.838;8.650;2023-04-02T14:03:05;100110.28;;;7.94;100.00
43119;BME280;28729;49.838;8.650;2023-04-02T14:07:42;100118.94;;;7.91;100.00
43119;BME280;28729;49.838;8.650;2023-04-02T14:12:06;100129.56;;;7.81;100.00
43119;BME280;28729;49.838;8.650;2023-04-02T14:16:32;100137.97;;;7.61;100.00
43119;BME280;28729;49.838;8.650;2023-04-02T14:29:27;100155.66;;;7.34;100.00
43119;BME280;28729;49.838;8.650;2023-04-02T14:33:44;100162.16;;;7.39;100.00
43119;BME280;28729;49.838;8.650;2023-04-02T14:37:58;100158.19;;;7.35;100.00
43119;BME280;28729;49.838;8.650;2023-04-02T14:42:16;100161.47;;;7.12;100.00
43119;BME280;28729;49.838;8.650;2023-04-02T14:46:25;100168.88;;;7.12;100.00
43119;BME280;28729;49.838;8.650;2023-04-02T14:50:34;100174.75;;;7.15;100.00
43119;BME280;28729;49.838;8.650;2023-04-02T14:55:02;100165.97;;;7.00;100.00
43119;BME280;28729;49.838;8.650;2023-04-02T15:03:17;100194.16;;;7.07;100.00
43119;BME280;28729;49.838;8.650;2023-04-02T15:07:30;100197.34;;;7.04;100.00
43119;BME280;28729;49.838;8.650;2023-04-02T15:11:41;100208.56;;;6.89;100.00
43119;BME280;28729;49.838;8.650;2023-04-02T15:16:18;100204.78;;;6.83;100.00
43119;BME280;28729;49.838;8.650;2023-04-02T15:20:20;100206.03;;;6.94;100.00
43119;BME280;28729;49.838;8.650;2023-04-02T15:28:53;100230.97;;;6.59;100.00
43119;BME280;28729;49.838;8.650;2023-04-02T15:37:32;100225.50;;;6.59;100.00
43119;BME280;28729;49.838;8.650;2023-04-02T15:41:58;100228.25;;;6.53;100.00
43119;BME280;28729;49.838;8.650;2023-04-02T15:46:15;100229.97;;;6.34;100.00
43119;BME280;28729;49.838;8.650;2023-04-02T15:55:17;100254.16;;;6.30;100.00
43119;BME280;28729;49.838;8.650;2023-04-02T16:03:58;100263.44;;;6.23;100.00
43119;BME280;28729;49.838;8.650;2023-04-02T16:12:15;100278.19;;;6.22;100.00
43119;BME280;28729;49.838;8.650;2023-04-02T16:16:21;100285.13;;;6.44;100.00
43119;BME280;28729;49.838;8.650;2023-04-02T16:20:30;100291.25;;;6.39;100.00
43119;BME280;28729;49.838;8.650;2023-04-02T16:24:33;100295.25;;;6.37;100.00
43119;BME280;28729;49.838;8.650;2023-04-02T16:28:55;100304.50;;;6.29;100.00
43119;BME280;28729;49.838;8.650;2023-04-02T16:37:42;100318.81;;;6.38;100.00
43119;BME280;28729;49.838;8.650;2023-04-02T16:42:30;100324.94;;;6.40;100.00
43119;BME280;28729;49.838;8.650;2023-04-02T16:46:49;100330.84;;;6.44;100.00
43119;BME280;28729;49.838;8.650;2023-04-02T16:55:59;100351.44;;;6.33;100.00
43119;BME280;28729;49.838;8.650;2023-04-02T17:08:25;100382.97;;;5.96;100.00
43119;BME280;28729;49.838;8.650;2023-04-02T17:12:36;100385.44;;;5.90;100.00
43119;BME280;28729;49.838;8.650;2023-04-02T17:16:49;100406.22;;;5.85;100.00
43119;BME280;28729;49.838;8.650;2023-04-02T17:20:52;100410.16;;;5.69;100.00
43119;BME280;28729;49.838;8.650;2023-04-02T17:24:59;100421.53;;;5.72;100.00
43119;BME280;28729;49.838;8.650;2023-04-02T17:29:07;100432.88;;;5.69;100.00
43119;BME280;28729;49.838;8.650;2023-04-02T17:33:14;100433.06;;;5.68;100.00
43119;BME280;28729;49.838;8.650;2023-04-02T17:37:23;100442.09;;;5.62;100.00
43119;BME280;28729;49.838;8.650;2023-04-02T17:41:33;100446.25;;;5.51;99.70
43119;BME280;28729;49.838;8.650;2023-04-02T17:45:50;100451.72;;;5.51;100.00
43119;BME280;28729;49.838;8.650;2023-04-02T17:58:29;100483.03;;;5.48;100.00
43119;BME280;28729;49.838;8.650;2023-04-02T18:02:56;100492.47;;;5.46;100.00
43119;BME280;28729;49.838;8.650;2023-04-02T18:15:53;100516.31;;;5.31;95.35
43119;BME280;28729;49.838;8.650;2023-04-02T18:20:17;100523.69;;;5.30;97.76
43119;BME280;28729;49.838;8.650;2023-04-02T18:29:25;100531.63;;;5.25;95.91
43119;BME280;28729;49.838;8.650;2023-04-02T18:33:48;100546.06;;;5.19;94.12
43119;BME280;28729;49.838;8.650;2023-04-02T18:38:15;100557.00;;;5.19;93.79
43119;BME280;28729;49.838;8.650;2023-04-02T18:46:38;100567.44;;;5.09;91.92
43119;BME280;28729;49.838;8.650;2023-04-02T18:50:45;100581.31;;;5.14;94.40
43119;BME280;28729;49.838;8.650;2023-04-02T18:54:51;100589.59;;;5.20;95.50
43119;BME280;28729;49.838;8.650;2023-04-02T18:59:05;100594.69;;;5.23;93.86
43119;BME280;28729;49.838;8.650;2023-04-02T19:03:30;100622.19;;;5.22;95.09
43119;BME280;28729;49.838;8.650;2023-04-02T19:07:37;100616.91;;;5.20;94.73
43119;BME280;28729;49.838;8.650;2023-04-02T19:11:41;100630.50;;;5.14;93.60
43119;BME280;28729;49.838;8.650;2023-04-02T19:24:21;100640.25;;;5.23;96.17
43119;BME280;28729;49.838;8.650;2023-04-02T19:28:46;100646.78;;;5.22;95.71
43119;BME280;28729;49.838;8.650;2023-04-02T19:33:02;100655.47;;;5.11;94.22
43119;BME280;28729;49.838;8.650;2023-04-02T19:37:32;100666.06;;;4.99;94.17
43119;BME280;28729;49.838;8.650;2023-04-02T19:41:45;100668.41;;;5.02;95.24
43119;BME280;28729;49.838;8.650;2023-04-02T19:45:49;100673.31;;;5.07;95.56
43119;BME280;28729;49.838;8.650;2023-04-02T19:49:53;100677.66;;;5.01;95.44
43119;BME280;28729;49.838;8.650;2023-04-02T19:53:56;100674.94;;;5.01;95.51
43119;BME280;28729;49.838;8.650;2023-04-02T19:57:57;100679.78;;;5.06;96.43
43119;BME280;28729;49.838;8.650;2023-04-02T20:02:13;100687.34;;;5.03;96.04
43119;BME280;28729;49.838;8.650;2023-04-02T20:06:16;100689.25;;;5.03;96.54
43119;BME280;28729;49.838;8.650;2023-04-02T20:10:18;100690.00;;;4.97;95.97
43119;BME280;28729;49.838;8.650;2023-04-02T20:14:23;100695.00;;;4.93;95.85
43119;BME280;28729;49.838;8.650;2023-04-02T20:18:27;100693.03;;;4.87;93.05
43119;BME280;28729;49.838;8.650;2023-04-02T20:22:29;100701.88;;;4.89;94.73
43119;BME280;28729;49.838;8.650;2023-04-02T20:26:32;100703.78;;;4.89;94.62
43119;BME280;28729;49.838;8.650;2023-04-02T20:30:34;100706.69;;;4.87;94.57
43119;BME280;28729;49.838;8.650;2023-04-02T20:34:37;100719.03;;;4.83;94.28
43119;BME280;28729;49.838;8.650;2023-04-02T20:38:39;100720.25;;;4.80;93.50
43119;BME280;28729;49.838;8.650;2023-04-02T20:42:40;100732.22;;;4.79;92.31
43119;BME280;28729;49.838;8.650;2023-04-02T20:46:42;100742.09;;;4.80;93.52
43119;BME280;28729;49.838;8.650;2023-04-02T20:50:44;100748.69;;;4.86;93.92
43119;BME280;28729;49.838;8.650;2023-04-02T20:54:48;100745.41;;;4.91;94.07
43119;BME280;28729;49.838;8.650;2023-04-02T20:58:51;100743.31;;;4.93;93.87
43119;BME280;28729;49.838;8.650;2023-04-02T21:02:52;100750.66;;;4.92;93.58
43119;BME280;28729;49.838;8.650;2023-04-02T21:06:54;100763.84;;;4.89;90.93
43119;BME280;28729;49.838;8.650;2023-04-02T21:11:03;100771.47;;;4.93;91.78
43119;BME280;28729;49.838;8.650;2023-04-02T21:15:06;100768.56;;;4.95;92.32
43119;BME280;28729;49.838;8.650;2023-04-02T21:19:09;100776.53;;;4.96;93.39
43119;BME280;28729;49.838;8.650;2023-04-02T21:23:10;100774.94;;;5.02;93.81
43119;BME280;28729;49.838;8.650;2023-04-02T21:27:12;100774.09;;;5.01;93.16
43119;BME280;28729;49.838;8.650;2023-04-02T21:31:17;100778.91;;;4.99;93.87
43119;BME280;28729;49.838;8.650;2023-04-02T21:35:19;100773.56;;;4.91;93.01
43119;BME280;28729;49.838;8.650;2023-04-02T21:39:22;100777.81;;;4.64;93.30
43119;BME280;28729;49.838;8.650;2023-04-02T21:43:24;100773.34;;;4.48;95.55
43119;BME280;28729;49.838;8.650;2023-04-02T21:47:27;100775.50;;;4.38;95.96
43119;BME280;28729;49.838;8.650;2023-04-02T21:51:31;100772.19;;;4.43;98.16
43119;BME280;28729;49.838;8.650;2023-04-02T21:55:33;100776.81;;;4.42;97.56
43119;BME280;28729;49.838;8.650;2023-04-02T21:59:35;100771.19;;;4.44;97.50
43119;BME280;28729;49.838;8.650;2023-04-02T22:03:37;100775.44;;;4.46;96.58
43119;BME280;28729;49.838;8.650;2023-04-02T22:07:38;100779.56;;;4.42;96.93
43119;BME280;28729;49.838;8.650;2023-04-02T22:11:54;100777.88;;;4.41;97.81
43119;BME280;28729;49.838;8.650;2023-04-02T22:16:05;100777.19;;;4.39;99.76
43119;BME280;28729;49.838;8.650;2023-04-02T22:20:08;100781.34;;;4.35;98.91
43119;BME280;28729;49.838;8.650;2023-04-02T22:24:13;100784.59;;;4.30;99.81
43119;BME280;28729;49.838;8.650;2023-04-02T22:28:15;100780.25;;;4.21;98.44
43119;BME280;28729;49.838;8.650;2023-04-02T22:32:16;100789.56;;;4.12;100.00
43119;BME280;28729;49.838;8.650;2023-04-02T22:36:20;100783.31;;;4.03;100.00
43119;BME280;28729;49.838;8.650;2023-04-02T22:40:23;100786.78;;;3.97;100.00
43119;BME280;28729;49.838;8.650;2023-04-02T22:44:25;100796.53;;;3.92;100.00
43119;BME280;28729;49.838;8.650;2023-04-02T22:48:26;100797.09;;;3.87;100.00
43119;BME280;28729;49.838;8.650;2023-04-02T22:52:28;100797.47;;;3.84;100.00
43119;BME280;28729;49.838;8.650;2023-04-02T22:56:30;100794.91;;;3.82;100.00
43119;BME280;28729;49.838;8.650;2023-04-02T23:00:33;100797.69;;;3.74;100.00
43119;BME280;28729;49.838;8.650;2023-04-02T23:04:35;100798.59;;;3.67;100.00
43119;BME280;28729;49.838;8.650;2023-04-02T23:08:38;100801.25;;;3.52;100.00
43119;BME280;28729;49.838;8.650;2023-04-02T23:12:40;100792.50;;;3.33;100.00
43119;BME280;28729;49.838;8.650;2023-04-02T23:16:41;100795.78;;;3.20;100.00
43119;BME280;28729;49.838;8.650;2023-04-02T23:20:43;100793.44;;;3.09;100.00
43119;BME280;28729;49.838;8.650;2023-04-02T23:24:45;100797.06;;;3.02;100.00
43119;BME280;28729;49.838;8.650;2023-04-02T23:28:48;100796.94;;;2.95;100.00
43119;BME280;28729;49.838;8.650;2023-04-02T23:32:50;100794.06;;;2.88;100.00
43119;BME280;28729;49.838;8.650;2023-04-02T23:36:52;100797.47;;;2.82;100.00
43119;BME280;28729;49.838;8.650;2023-04-02T23:40:54;100800.56;;;2.79;100.00
43119;BME280;28729;49.838;8.650;2023-04-02T23:44:55;100795.28;;;2.78;100.00
43119;BME280;28729;49.838;8.650;2023-04-02T23:48:58;100801.25;;;2.73;100.00
43119;BME280;28729;49.838;8.650;2023-04-02T23:53:00;100802.13;;;2.65;100.00
43119;BME280;28729;49.838;8.650;2023-04-02T23:57:02;100801.13;;;2.58;100.00
